sensor_id;sensor_type;location;lat;lon;timestamp;temperature;humidity
18581;DHT22;9420;50.876;7.012;2023-10-31T00:01:33;11.94;84.42
18581;DHT22;9420;50.876;7.012;2023-10-31T00:04:01;11.94;84.62
18581;DHT22;9420;50.876;7.012;2023-10-31T00:06:28;11.98;84.43
18581;DHT22;9420;50.876;7.012;2023-10-31T00:08:54;11.97;84.42
18581;DHT22;9420;50.876;7.012;2023-10-31T00:11:21;11.97;84.54
18581;DHT22;9420;50.876;7.012;2023-10-31T00:13:48;12.00;84.22
18581;DHT22;9420;50.876;7.012;2023-10-31T00:16:14;11.94;84.56
18581;DHT22;9420;50.876;7.012;2023-10-31T00:18:41;12.00;84.24
18581;DHT22;9420;50.876;7.012;2023-10-31T00:21:09;12.00;84.15
18581;DHT22;9420;50.876;7.012;2023-10-31T00:23:42;11.94;84.42
18581;DHT22;9420;50.876;7.012;2023-10-31T00:26:09;11.95;84.26
18581;DHT22;9420;50.876;7.012;2023-10-31T00:28:36;12.02;83.38
18581;DHT22;9420;50.876;7.012;2023-10-31T00:31:03;11.94;84.00
18581;DHT22;9420;50.876;7.012;2023-10-31T00:33:30;11.91;83.83
18581;DHT22;9420;50.876;7.012;2023-10-31T00:35:57;11.89;83.99
18581;DHT22;9420;50.876;7.012;2023-10-31T00:38:25;11.91;83.45
18581;DHT22;9420;50.876;7.012;2023-10-31T00:40:51;11.87;83.85
18581;DHT22;9420;50.876;7.012;2023-10-31T00:43:18;11.90;83.59
18581;DHT22;9420;50.876;7.012;2023-10-31T00:45:44;11.94;83.27
18581;DHT22;9420;50.876;7.012;2023-10-31T00:48:11;11.89;83.17
18581;DHT22;9420;50.876;7.012;2023-10-31T00:50:38;11.80;83.95
18581;DHT22;9420;50.876;7.012;2023-10-31T00:53:04;11.79;83.56
18581;DHT22;9420;50.876;7.012;2023-10-31T00:55:32;11.74;83.59
18581;DHT22;9420;50.876;7.012;2023-10-31T00:58:01;11.73;83.74
18581;DHT22;9420;50.876;7.012;2023-10-31T01:00:28;11.73;84.19
18581;DHT22;9420;50.876;7.012;2023-10-31T01:02:55;11.70;83.97
18581;DHT22;9420;50.876;7.012;2023-10-31T01:05:22;11.70;83.73
18581;DHT22;9420;50.876;7.012;2023-10-31T01:07:48;11.62;84.21
18581;DHT22;9420;50.876;7.012;2023-10-31T01:10:15;11.66;84.03
18581;DHT22;9420;50.876;7.012;2023-10-31T01:12:43;11.66;84.29
18581;DHT22;9420;50.876;7.012;2023-10-31T01:15:09;11.62;84.16
18581;DHT22;9420;50.876;7.012;2023-10-31T01:17:36;11.45;84.76
18581;DHT22;9420;50.876;7.012;2023-10-31T01:20:04;11.40;84.50
18581;DHT22;9420;50.876;7.012;2023-10-31T01:22:30;11.28;84.69
18581;DHT22;9420;50.876;7.012;2023-10-31T01:24:57;11.12;84.91
18581;DHT22;9420;50.876;7.012;2023-10-31T01:27:24;11.15;84.35
18581;DHT22;9420;50.876;7.012;2023-10-31T01:29:52;11.11;84.39
18581;DHT22;9420;50.876;7.012;2023-10-31T01:32:19;11.00;84.36
18581;DHT22;9420;50.876;7.012;2023-10-31T01:34:45;10.91;84.49
18581;DHT22;9420;50.876;7.012;2023-10-31T01:37:12;10.90;84.49
18581;DHT22;9420;50.876;7.012;2023-10-31T01:39:39;10.90;84.35
18581;DHT22;9420;50.876;7.012;2023-10-31T01:42:06;10.78;84.79
18581;DHT22;9420;50.876;7.012;2023-10-31T01:44:33;10.94;84.06
18581;DHT22;9420;50.876;7.012;2023-10-31T01:47:01;10.90;84.18
18581;DHT22;9420;50.876;7.012;2023-10-31T01:49:28;10.93;84.35
18581;DHT22;9420;50.876;7.012;2023-10-31T01:51:55;10.95;84.22
18581;DHT22;9420;50.876;7.012;2023-10-31T01:54:21;10.87;84.50
18581;DHT22;9420;50.876;7.012;2023-10-31T01:56:48;10.80;84.51
18581;DHT22;9420;50.876;7.012;2023-10-31T01:59:16;10.73;84.54
18581;DHT22;9420;50.876;7.012;2023-10-31T02:01:43;10.64;84.75
18581;DHT22;9420;50.876;7.012;2023-10-31T02:04:11;10.56;84.99
18581;DHT22;9420;50.876;7.012;2023-10-31T02:06:38;10.42;85.20
18581;DHT22;9420;50.876;7.012;2023-10-31T02:09:04;10.45;85.24
18581;DHT22;9420;50.876;7.012;2023-10-31T02:11:31;10.39;85.40
18581;DHT22;9420;50.876;7.012;2023-10-31T02:13:58;10.33;85.50
18581;DHT22;9420;50.876;7.012;2023-10-31T02:16:24;10.26;85.59
18581;DHT22;9420;50.876;7.012;2023-10-31T02:18:51;10.23;85.77
18581;DHT22;9420;50.876;7.012;2023-10-31T02:21:20;10.18;85.75
18581;DHT22;9420;50.876;7.012;2023-10-31T02:23:57;10.13;85.82
18581;DHT22;9420;50.876;7.012;2023-10-31T02:26:23;10.16;85.65
18581;DHT22;9420;50.876;7.012;2023-10-31T02:28:50;10.12;85.78
18581;DHT22;9420;50.876;7.012;2023-10-31T02:31:17;10.08;85.80
18581;DHT22;9420;50.876;7.012;2023-10-31T02:33:43;9.99;86.11
18581;DHT22;9420;50.876;7.012;2023-10-31T02:36:10;10.06;85.72
18581;DHT22;9420;50.876;7.012;2023-10-31T02:38:37;9.84;86.24
18581;DHT22;9420;50.876;7.012;2023-10-31T02:41:05;10.02;85.61
18581;DHT22;9420;50.876;7.012;2023-10-31T02:43:32;10.08;85.48
18581;DHT22;9420;50.876;7.012;2023-10-31T02:45:59;10.08;85.23
18581;DHT22;9420;50.876;7.012;2023-10-31T02:48:26;9.98;85.37
18581;DHT22;9420;50.876;7.012;2023-10-31T02:50:52;9.95;85.46
18581;DHT22;9420;50.876;7.012;2023-10-31T02:53:19;10.02;85.23
18581;DHT22;9420;50.876;7.012;2023-10-31T02:55:46;10.02;85.16
18581;DHT22;9420;50.876;7.012;2023-10-31T02:58:14;10.15;84.78
18581;DHT22;9420;50.876;7.012;2023-10-31T03:00:42;10.19;84.60
18581;DHT22;9420;50.876;7.012;2023-10-31T03:03:09;10.02;84.96
18581;DHT22;9420;50.876;7.012;2023-10-31T03:05:36;9.87;85.47
18581;DHT22;9420;50.876;7.012;2023-10-31T03:08:03;9.81;85.64
18581;DHT22;9420;50.876;7.012;2023-10-31T03:10:30;9.94;85.46
18581;DHT22;9420;50.876;7.012;2023-10-31T03:12:56;9.73;86.47
18581;DHT22;9420;50.876;7.012;2023-10-31T03:15:25;9.75;86.85
18581;DHT22;9420;50.876;7.012;2023-10-31T03:17:52;9.70;87.71
18581;DHT22;9420;50.876;7.012;2023-10-31T03:20:19;9.67;87.61
18581;DHT22;9420;50.876;7.012;2023-10-31T03:22:45;9.67;87.75
18581;DHT22;9420;50.876;7.012;2023-10-31T03:25:12;9.65;88.12
18581;DHT22;9420;50.876;7.012;2023-10-31T03:27:39;9.55;88.28
18581;DHT22;9420;50.876;7.012;2023-10-31T03:30:07;9.65;88.12
18581;DHT22;9420;50.876;7.012;2023-10-31T03:32:35;9.75;88.07
18581;DHT22;9420;50.876;7.012;2023-10-31T03:35:01;9.64;88.22
18581;DHT22;9420;50.876;7.012;2023-10-31T03:37:28;10.06;85.89
18581;DHT22;9420;50.876;7.012;2023-10-31T03:39:54;10.35;84.65
18581;DHT22;9420;50.876;7.012;2023-10-31T03:42:21;10.36;84.39
18581;DHT22;9420;50.876;7.012;2023-10-31T03:44:48;10.63;83.33
18581;DHT22;9420;50.876;7.012;2023-10-31T03:47:14;10.78;82.50
18581;DHT22;9420;50.876;7.012;2023-10-31T03:49:42;10.90;82.21
18581;DHT22;9420;50.876;7.012;2023-10-31T03:52:09;10.85;82.45
18581;DHT22;9420;50.876;7.012;2023-10-31T03:54:35;10.91;82.15
18581;DHT22;9420;50.876;7.012;2023-10-31T03:57:02;10.83;82.46
18581;DHT22;9420;50.876;7.012;2023-10-31T03:59:29;10.88;82.27
18581;DHT22;9420;50.876;7.012;2023-10-31T04:01:55;10.85;82.39
18581;DHT22;9420;50.876;7.012;2023-10-31T04:04:22;10.84;82.65
18581;DHT22;9420;50.876;7.012;2023-10-31T04:06:50;10.91;82.42
18581;DHT22;9420;50.876;7.012;2023-10-31T04:09:16;10.94;82.04
18581;DHT22;9420;50.876;7.012;2023-10-31T04:11:43;10.94;82.45
18581;DHT22;9420;50.876;7.012;2023-10-31T04:14:09;11.03;82.11
18581;DHT22;9420;50.876;7.012;2023-10-31T04:16:38;11.04;82.30
18581;DHT22;9420;50.876;7.012;2023-10-31T04:19:05;11.18;81.77
18581;DHT22;9420;50.876;7.012;2023-10-31T04:21:32;11.10;82.47
18581;DHT22;9420;50.876;7.012;2023-10-31T04:24:00;11.08;82.36
18581;DHT22;9420;50.876;7.012;2023-10-31T04:26:26;11.10;82.63
18581;DHT22;9420;50.876;7.012;2023-10-31T04:28:53;11.18;81.89
18581;DHT22;9420;50.876;7.012;2023-10-31T04:31:20;11.18;81.84
18581;DHT22;9420;50.876;7.012;2023-10-31T04:33:46;11.24;81.84
18581;DHT22;9420;50.876;7.012;2023-10-31T04:36:13;11.24;81.88
18581;DHT22;9420;50.876;7.012;2023-10-31T04:38:40;11.24;81.71
18581;DHT22;9420;50.876;7.012;2023-10-31T04:41:09;11.22;81.74
18581;DHT22;9420;50.876;7.012;2023-10-31T04:43:35;11.21;82.02
18581;DHT22;9420;50.876;7.012;2023-10-31T04:46:02;11.12;82.15
18581;DHT22;9420;50.876;7.012;2023-10-31T04:48:29;11.22;81.84
18581;DHT22;9420;50.876;7.012;2023-10-31T04:50:57;11.24;81.84
18581;DHT22;9420;50.876;7.012;2023-10-31T04:53:24;11.18;81.99
18581;DHT22;9420;50.876;7.012;2023-10-31T04:55:51;11.24;82.05
18581;DHT22;9420;50.876;7.012;2023-10-31T04:58:19;11.25;82.08
18581;DHT22;9420;50.876;7.012;2023-10-31T05:00:46;11.22;82.15
18581;DHT22;9420;50.876;7.012;2023-10-31T05:03:13;11.25;82.28
18581;DHT22;9420;50.876;7.012;2023-10-31T05:05:39;11.22;82.28
18581;DHT22;9420;50.876;7.012;2023-10-31T05:08:06;11.14;82.66
18581;DHT22;9420;50.876;7.012;2023-10-31T05:10:33;11.22;82.58
18581;DHT22;9420;50.876;7.012;2023-10-31T05:13:00;11.04;83.10
18581;DHT22;9420;50.876;7.012;2023-10-31T05:15:28;11.10;82.75
18581;DHT22;9420;50.876;7.012;2023-10-31T05:17:55;11.07;82.89
18581;DHT22;9420;50.876;7.012;2023-10-31T05:20:22;10.97;83.33
18581;DHT22;9420;50.876;7.012;2023-10-31T05:22:48;10.87;83.54
18581;DHT22;9420;50.876;7.012;2023-10-31T05:25:15;10.84;83.65
18581;DHT22;9420;50.876;7.012;2023-10-31T05:27:42;10.87;83.38
18581;DHT22;9420;50.876;7.012;2023-10-31T05:30:10;11.00;82.81
18581;DHT22;9420;50.876;7.012;2023-10-31T05:32:38;10.93;82.92
18581;DHT22;9420;50.876;7.012;2023-10-31T05:35:05;10.88;83.23
18581;DHT22;9420;50.876;7.012;2023-10-31T05:37:32;10.94;83.00
18581;DHT22;9420;50.876;7.012;2023-10-31T05:39:58;10.91;83.05
18581;DHT22;9420;50.876;7.012;2023-10-31T05:42:26;10.97;82.76
18581;DHT22;9420;50.876;7.012;2023-10-31T05:44:54;10.84;83.28
18581;DHT22;9420;50.876;7.012;2023-10-31T05:47:22;10.81;83.19
18581;DHT22;9420;50.876;7.012;2023-10-31T05:49:50;10.77;83.41
18581;DHT22;9420;50.876;7.012;2023-10-31T05:52:17;10.74;83.45
18581;DHT22;9420;50.876;7.012;2023-10-31T05:54:43;10.59;83.88
18581;DHT22;9420;50.876;7.012;2023-10-31T05:57:10;10.71;83.55
18581;DHT22;9420;50.876;7.012;2023-10-31T05:59:38;10.77;83.40
18581;DHT22;9420;50.876;7.012;2023-10-31T06:02:05;10.78;83.60
18581;DHT22;9420;50.876;7.012;2023-10-31T06:04:31;10.87;83.28
18581;DHT22;9420;50.876;7.012;2023-10-31T06:06:59;10.83;83.49
18581;DHT22;9420;50.876;7.012;2023-10-31T06:09:26;10.98;82.88
18581;DHT22;9420;50.876;7.012;2023-10-31T06:11:53;10.87;83.26
18581;DHT22;9420;50.876;7.012;2023-10-31T06:14:19;10.94;83.04
18581;DHT22;9420;50.876;7.012;2023-10-31T06:16:46;10.94;83.16
18581;DHT22;9420;50.876;7.012;2023-10-31T06:19:12;11.08;82.39
18581;DHT22;9420;50.876;7.012;2023-10-31T06:21:39;11.05;82.58
18581;DHT22;9420;50.876;7.012;2023-10-31T06:24:08;11.07;82.62
18581;DHT22;9420;50.876;7.012;2023-10-31T06:26:35;11.05;82.94
18581;DHT22;9420;50.876;7.012;2023-10-31T06:29:02;11.01;82.68
18581;DHT22;9420;50.876;7.012;2023-10-31T06:31:29;11.03;82.69
18581;DHT22;9420;50.876;7.012;2023-10-31T06:33:55;11.05;82.88
18581;DHT22;9420;50.876;7.012;2023-10-31T06:36:22;11.04;82.95
18581;DHT22;9420;50.876;7.012;2023-10-31T06:38:49;11.10;83.02
18581;DHT22;9420;50.876;7.012;2023-10-31T06:41:17;11.15;82.25
18581;DHT22;9420;50.876;7.012;2023-10-31T06:43:44;11.18;82.60
18581;DHT22;9420;50.876;7.012;2023-10-31T06:46:13;11.24;82.39
18581;DHT22;9420;50.876;7.012;2023-10-31T06:48:40;11.18;82.33
18581;DHT22;9420;50.876;7.012;2023-10-31T06:51:07;11.25;82.22
18581;DHT22;9420;50.876;7.012;2023-10-31T06:53:33;11.22;82.34
18581;DHT22;9420;50.876;7.012;2023-10-31T06:56:00;11.18;82.72
18581;DHT22;9420;50.876;7.012;2023-10-31T06:58:28;11.11;82.62
18581;DHT22;9420;50.876;7.012;2023-10-31T07:00:55;11.11;82.91
18581;DHT22;9420;50.876;7.012;2023-10-31T07:03:25;11.16;82.92
18581;DHT22;9420;50.876;7.012;2023-10-31T07:05:51;11.19;82.59
18581;DHT22;9420;50.876;7.012;2023-10-31T07:08:18;11.26;82.29
18581;DHT22;9420;50.876;7.012;2023-10-31T07:10:45;11.22;82.94
18581;DHT22;9420;50.876;7.012;2023-10-31T07:13:11;11.24;83.18
18581;DHT22;9420;50.876;7.012;2023-10-31T07:15:39;11.31;82.49
18581;DHT22;9420;50.876;7.012;2023-10-31T07:18:06;11.31;83.00
18581;DHT22;9420;50.876;7.012;2023-10-31T07:20:33;11.35;82.56
18581;DHT22;9420;50.876;7.012;2023-10-31T07:23:00;11.46;81.96
18581;DHT22;9420;50.876;7.012;2023-10-31T07:25:27;11.52;82.00
18581;DHT22;9420;50.876;7.012;2023-10-31T07:27:53;11.55;81.52
18581;DHT22;9420;50.876;7.012;2023-10-31T07:30:20;11.49;82.24
18581;DHT22;9420;50.876;7.012;2023-10-31T07:32:48;11.53;82.50
18581;DHT22;9420;50.876;7.012;2023-10-31T07:35:14;11.53;81.82
18581;DHT22;9420;50.876;7.012;2023-10-31T07:37:41;11.63;81.55
18581;DHT22;9420;50.876;7.012;2023-10-31T07:40:08;11.58;81.51
18581;DHT22;9420;50.876;7.012;2023-10-31T07:42:35;11.55;81.79
18581;DHT22;9420;50.876;7.012;2023-10-31T07:45:02;11.52;81.45
18581;DHT22;9420;50.876;7.012;2023-10-31T07:47:28;11.51;81.77
18581;DHT22;9420;50.876;7.012;2023-10-31T07:49:56;11.63;81.73
18581;DHT22;9420;50.876;7.012;2023-10-31T07:52:23;11.59;81.51
18581;DHT22;9420;50.876;7.012;2023-10-31T07:54:50;11.59;81.47
18581;DHT22;9420;50.876;7.012;2023-10-31T07:57:17;11.67;81.48
18581;DHT22;9420;50.876;7.012;2023-10-31T07:59:44;11.55;81.93
18581;DHT22;9420;50.876;7.012;2023-10-31T08:02:10;11.59;81.16
18581;DHT22;9420;50.876;7.012;2023-10-31T08:04:38;11.63;81.09
18581;DHT22;9420;50.876;7.012;2023-10-31T08:07:06;11.55;81.29
18581;DHT22;9420;50.876;7.012;2023-10-31T08:09:33;11.52;81.48
18581;DHT22;9420;50.876;7.012;2023-10-31T08:12:00;11.65;80.91
18581;DHT22;9420;50.876;7.012;2023-10-31T08:14:26;11.62;81.41
18581;DHT22;9420;50.876;7.012;2023-10-31T08:16:53;11.74;81.34
18581;DHT22;9420;50.876;7.012;2023-10-31T08:19:20;11.87;80.60
18581;DHT22;9420;50.876;7.012;2023-10-31T08:21:47;11.93;80.39
18581;DHT22;9420;50.876;7.012;2023-10-31T08:24:14;11.98;80.12
18581;DHT22;9420;50.876;7.012;2023-10-31T08:26:41;12.05;79.51
18581;DHT22;9420;50.876;7.012;2023-10-31T08:29:08;12.04;79.93
18581;DHT22;9420;50.876;7.012;2023-10-31T08:31:34;12.02;79.99
18581;DHT22;9420;50.876;7.012;2023-10-31T08:34:01;12.16;80.11
18581;DHT22;9420;50.876;7.012;2023-10-31T08:36:29;12.24;79.64
18581;DHT22;9420;50.876;7.012;2023-10-31T08:38:55;12.35;79.49
18581;DHT22;9420;50.876;7.012;2023-10-31T08:41:24;12.28;79.63
18581;DHT22;9420;50.876;7.012;2023-10-31T08:43:50;12.48;79.64
18581;DHT22;9420;50.876;7.012;2023-10-31T08:46:17;12.53;79.16
18581;DHT22;9420;50.876;7.012;2023-10-31T08:48:44;12.58;79.46
18581;DHT22;9420;50.876;7.012;2023-10-31T08:51:10;12.65;78.91
18581;DHT22;9420;50.876;7.012;2023-10-31T08:53:37;12.52;79.23
18581;DHT22;9420;50.876;7.012;2023-10-31T08:56:04;12.34;79.87
18581;DHT22;9420;50.876;7.012;2023-10-31T08:58:32;12.34;79.10
18581;DHT22;9420;50.876;7.012;2023-10-31T09:00:59;12.35;79.07
18581;DHT22;9420;50.876;7.012;2023-10-31T09:03:25;12.24;79.58
18581;DHT22;9420;50.876;7.012;2023-10-31T09:05:52;12.34;79.46
18581;DHT22;9420;50.876;7.012;2023-10-31T09:08:18;12.25;79.35
18581;DHT22;9420;50.876;7.012;2023-10-31T09:10:45;12.25;79.82
18581;DHT22;9420;50.876;7.012;2023-10-31T09:13:13;12.39;79.35
18581;DHT22;9420;50.876;7.012;2023-10-31T09:15:41;12.45;79.20
18581;DHT22;9420;50.876;7.012;2023-10-31T09:18:11;12.42;78.96
18581;DHT22;9420;50.876;7.012;2023-10-31T09:20:40;12.39;78.91
18581;DHT22;9420;50.876;7.012;2023-10-31T09:23:07;12.34;78.46
18581;DHT22;9420;50.876;7.012;2023-10-31T09:25:33;12.38;79.01
18581;DHT22;9420;50.876;7.012;2023-10-31T09:28:00;12.45;79.07
18581;DHT22;9420;50.876;7.012;2023-10-31T09:30:27;12.53;79.13
18581;DHT22;9420;50.876;7.012;2023-10-31T09:32:55;12.56;78.65
18581;DHT22;9420;50.876;7.012;2023-10-31T09:35:21;12.68;78.50
18581;DHT22;9420;50.876;7.012;2023-10-31T09:37:48;12.66;78.37
18581;DHT22;9420;50.876;7.012;2023-10-31T09:40:15;12.68;77.06
18581;DHT22;9420;50.876;7.012;2023-10-31T09:42:42;12.68;77.38
18581;DHT22;9420;50.876;7.012;2023-10-31T09:45:09;12.66;77.68
18581;DHT22;9420;50.876;7.012;2023-10-31T09:47:36;12.79;77.06
18581;DHT22;9420;50.876;7.012;2023-10-31T09:50:04;12.70;77.49
18581;DHT22;9420;50.876;7.012;2023-10-31T09:52:33;12.79;77.27
18581;DHT22;9420;50.876;7.012;2023-10-31T09:55:01;12.90;77.32
18581;DHT22;9420;50.876;7.012;2023-10-31T09:57:28;12.86;76.96
18581;DHT22;9420;50.876;7.012;2023-10-31T09:59:55;12.90;76.98
18581;DHT22;9420;50.876;7.012;2023-10-31T10:02:21;12.99;76.87
18581;DHT22;9420;50.876;7.012;2023-10-31T10:04:48;13.03;76.49
18581;DHT22;9420;50.876;7.012;2023-10-31T10:07:17;13.10;76.79
18581;DHT22;9420;50.876;7.012;2023-10-31T10:09:45;13.06;76.60
18581;DHT22;9420;50.876;7.012;2023-10-31T10:12:13;13.26;75.26
18581;DHT22;9420;50.876;7.012;2023-10-31T10:14:40;13.48;75.29
18581;DHT22;9420;50.876;7.012;2023-10-31T10:17:14;13.51;75.20
18581;DHT22;9420;50.876;7.012;2023-10-31T10:19:41;13.59;74.58
18581;DHT22;9420;50.876;7.012;2023-10-31T10:22:08;13.59;75.00
18581;DHT22;9420;50.876;7.012;2023-10-31T10:24:39;13.61;73.87
18581;DHT22;9420;50.876;7.012;2023-10-31T10:27:06;13.61;74.81
18581;DHT22;9420;50.876;7.012;2023-10-31T10:29:33;13.44;74.04
18581;DHT22;9420;50.876;7.012;2023-10-31T10:32:00;13.64;74.71
18581;DHT22;9420;50.876;7.012;2023-10-31T10:34:27;14.06;74.45
18581;DHT22;9420;50.876;7.012;2023-10-31T10:36:55;14.27;72.30
18581;DHT22;9420;50.876;7.012;2023-10-31T10:39:23;14.34;72.75
18581;DHT22;9420;50.876;7.012;2023-10-31T10:41:54;14.56;71.44
18581;DHT22;9420;50.876;7.012;2023-10-31T10:44:30;14.63;71.49
18581;DHT22;9420;50.876;7.012;2023-10-31T10:46:58;14.78;71.51
18581;DHT22;9420;50.876;7.012;2023-10-31T10:49:27;14.43;71.24
18581;DHT22;9420;50.876;7.012;2023-10-31T10:51:58;14.29;72.34
18581;DHT22;9420;50.876;7.012;2023-10-31T10:54:32;13.96;72.29
18581;DHT22;9420;50.876;7.012;2023-10-31T10:57:09;13.93;71.46
18581;DHT22;9420;50.876;7.012;2023-10-31T10:59:42;13.96;71.19
18581;DHT22;9420;50.876;7.012;2023-10-31T11:02:09;14.05;70.79
18581;DHT22;9420;50.876;7.012;2023-10-31T11:04:42;14.22;71.28
18581;DHT22;9420;50.876;7.012;2023-10-31T11:07:10;14.32;71.92
18581;DHT22;9420;50.876;7.012;2023-10-31T11:09:36;14.01;72.99
18581;DHT22;9420;50.876;7.012;2023-10-31T11:12:06;13.99;72.42
18581;DHT22;9420;50.876;7.012;2023-10-31T11:14:33;13.98;72.67
18581;DHT22;9420;50.876;7.012;2023-10-31T11:17:05;14.02;72.27
18581;DHT22;9420;50.876;7.012;2023-10-31T11:19:33;14.09;72.60
18581;DHT22;9420;50.876;7.012;2023-10-31T11:22:02;14.23;72.80
18581;DHT22;9420;50.876;7.012;2023-10-31T11:24:31;14.10;72.94
18581;DHT22;9420;50.876;7.012;2023-10-31T11:27:00;14.19;72.89
18581;DHT22;9420;50.876;7.012;2023-10-31T11:29:30;14.24;72.03
18581;DHT22;9420;50.876;7.012;2023-10-31T11:31:59;14.16;72.13
18581;DHT22;9420;50.876;7.012;2023-10-31T11:34:26;14.06;74.12
18581;DHT22;9420;50.876;7.012;2023-10-31T11:36:53;14.20;72.32
18581;DHT22;9420;50.876;7.012;2023-10-31T11:39:21;14.20;73.13
18581;DHT22;9420;50.876;7.012;2023-10-31T11:41:54;14.17;73.34
18581;DHT22;9420;50.876;7.012;2023-10-31T11:44:22;14.23;72.03
18581;DHT22;9420;50.876;7.012;2023-10-31T11:46:51;14.13;72.44
18581;DHT22;9420;50.876;7.012;2023-10-31T11:49:17;14.38;71.06
18581;DHT22;9420;50.876;7.012;2023-10-31T11:51:45;14.70;70.35
18581;DHT22;9420;50.876;7.012;2023-10-31T11:54:13;15.01;70.66
18581;DHT22;9420;50.876;7.012;2023-10-31T11:56:40;17.08;65.33
18581;DHT22;9420;50.876;7.012;2023-10-31T11:59:06;15.70;67.46
18581;DHT22;9420;50.876;7.012;2023-10-31T12:01:33;18.33;60.15
18581;DHT22;9420;50.876;7.012;2023-10-31T12:04:01;18.24;60.09
18581;DHT22;9420;50.876;7.012;2023-10-31T12:06:29;17.72;60.86
18581;DHT22;9420;50.876;7.012;2023-10-31T12:08:59;16.90;63.29
18581;DHT22;9420;50.876;7.012;2023-10-31T12:11:26;17.11;64.65
18581;DHT22;9420;50.876;7.012;2023-10-31T12:13:55;16.36;65.04
18581;DHT22;9420;50.876;7.012;2023-10-31T12:16:26;17.55;61.42
18581;DHT22;9420;50.876;7.012;2023-10-31T12:18:57;17.00;64.21
18581;DHT22;9420;50.876;7.012;2023-10-31T12:21:39;16.73;65.29
18581;DHT22;9420;50.876;7.012;2023-10-31T12:24:09;15.94;66.88
18581;DHT22;9420;50.876;7.012;2023-10-31T12:26:36;15.98;66.64
18581;DHT22;9420;50.876;7.012;2023-10-31T12:29:07;17.24;64.74
18581;DHT22;9420;50.876;7.012;2023-10-31T12:31:33;19.12;59.23
18581;DHT22;9420;50.876;7.012;2023-10-31T12:34:04;17.97;61.96
18581;DHT22;9420;50.876;7.012;2023-10-31T12:36:31;16.17;65.33
18581;DHT22;9420;50.876;7.012;2023-10-31T12:39:00;15.01;69.83
18581;DHT22;9420;50.876;7.012;2023-10-31T12:41:27;14.75;70.11
18581;DHT22;9420;50.876;7.012;2023-10-31T12:43:54;14.65;71.64
18581;DHT22;9420;50.876;7.012;2023-10-31T12:46:24;14.80;70.90
18581;DHT22;9420;50.876;7.012;2023-10-31T12:48:51;15.22;70.13
18581;DHT22;9420;50.876;7.012;2023-10-31T12:51:17;18.27;62.55
18581;DHT22;9420;50.876;7.012;2023-10-31T12:53:48;20.83;56.24
18581;DHT22;9420;50.876;7.012;2023-10-31T12:56:37;20.26;54.71
18581;DHT22;9420;50.876;7.012;2023-10-31T12:59:05;21.08;52.37
18581;DHT22;9420;50.876;7.012;2023-10-31T13:01:33;21.39;53.84
18581;DHT22;9420;50.876;7.012;2023-10-31T13:03:59;22.34;51.20
18581;DHT22;9420;50.876;7.012;2023-10-31T13:06:26;21.83;50.59
18581;DHT22;9420;50.876;7.012;2023-10-31T13:08:55;21.59;52.73
18581;DHT22;9420;50.876;7.012;2023-10-31T13:11:22;22.41;50.65
18581;DHT22;9420;50.876;7.012;2023-10-31T13:13:52;19.46;56.50
18581;DHT22;9420;50.876;7.012;2023-10-31T13:16:19;19.77;55.41
18581;DHT22;9420;50.876;7.012;2023-10-31T13:18:46;19.95;56.67
18581;DHT22;9420;50.876;7.012;2023-10-31T13:21:12;19.54;56.26
18581;DHT22;9420;50.876;7.012;2023-10-31T13:23:40;20.49;53.61
18581;DHT22;9420;50.876;7.012;2023-10-31T13:26:10;19.68;56.06
18581;DHT22;9420;50.876;7.012;2023-10-31T13:28:40;19.20;56.07
18581;DHT22;9420;50.876;7.012;2023-10-31T13:31:08;18.48;58.41
18581;DHT22;9420;50.876;7.012;2023-10-31T13:33:36;19.23;57.37
18581;DHT22;9420;50.876;7.012;2023-10-31T13:36:03;21.29;53.22
18581;DHT22;9420;50.876;7.012;2023-10-31T13:38:30;20.97;52.73
18581;DHT22;9420;50.876;7.012;2023-10-31T13:40:57;19.44;55.14
18581;DHT22;9420;50.876;7.012;2023-10-31T13:43:23;19.92;55.64
18581;DHT22;9420;50.876;7.012;2023-10-31T13:45:50;19.46;55.95
18581;DHT22;9420;50.876;7.012;2023-10-31T13:48:18;19.26;56.79
18581;DHT22;9420;50.876;7.012;2023-10-31T13:50:44;19.89;55.43
18581;DHT22;9420;50.876;7.012;2023-10-31T13:53:11;19.23;56.98
18581;DHT22;9420;50.876;7.012;2023-10-31T13:55:38;19.34;55.30
18581;DHT22;9420;50.876;7.012;2023-10-31T13:58:04;20.06;54.52
18581;DHT22;9420;50.876;7.012;2023-10-31T14:00:31;19.05;56.90
18581;DHT22;9420;50.876;7.012;2023-10-31T14:02:58;18.40;59.14
18581;DHT22;9420;50.876;7.012;2023-10-31T14:05:26;18.07;59.22
18581;DHT22;9420;50.876;7.012;2023-10-31T14:07:53;18.18;57.53
18581;DHT22;9420;50.876;7.012;2023-10-31T14:10:19;17.94;61.13
18581;DHT22;9420;50.876;7.012;2023-10-31T14:12:46;17.71;59.75
18581;DHT22;9420;50.876;7.012;2023-10-31T14:15:13;18.36;59.15
18581;DHT22;9420;50.876;7.012;2023-10-31T14:17:40;20.19;54.26
18581;DHT22;9420;50.876;7.012;2023-10-31T14:20:07;21.43;51.41
18581;DHT22;9420;50.876;7.012;2023-10-31T14:22:35;21.28;51.56
18581;DHT22;9420;50.876;7.012;2023-10-31T14:25:02;19.84;53.89
18581;DHT22;9420;50.876;7.012;2023-10-31T14:27:32;19.82;54.37
18581;DHT22;9420;50.876;7.012;2023-10-31T14:29:59;20.12;54.18
18581;DHT22;9420;50.876;7.012;2023-10-31T14:32:26;20.47;52.82
18581;DHT22;9420;50.876;7.012;2023-10-31T14:34:52;21.20;50.82
18581;DHT22;9420;50.876;7.012;2023-10-31T14:37:19;19.56;56.20
18581;DHT22;9420;50.876;7.012;2023-10-31T14:39:48;18.47;56.69
18581;DHT22;9420;50.876;7.012;2023-10-31T14:42:14;17.10;61.17
18581;DHT22;9420;50.876;7.012;2023-10-31T14:44:41;16.93;61.51
18581;DHT22;9420;50.876;7.012;2023-10-31T14:47:08;16.12;64.58
18581;DHT22;9420;50.876;7.012;2023-10-31T14:49:34;16.25;64.19
18581;DHT22;9420;50.876;7.012;2023-10-31T14:52:01;16.15;64.39
18581;DHT22;9420;50.876;7.012;2023-10-31T14:54:29;15.47;66.96
18581;DHT22;9420;50.876;7.012;2023-10-31T14:56:58;15.33;67.50
18581;DHT22;9420;50.876;7.012;2023-10-31T14:59:26;15.15;68.16
18581;DHT22;9420;50.876;7.012;2023-10-31T15:01:53;15.23;68.25
18581;DHT22;9420;50.876;7.012;2023-10-31T15:04:19;14.78;69.76
18581;DHT22;9420;50.876;7.012;2023-10-31T15:06:46;14.75;69.76
18581;DHT22;9420;50.876;7.012;2023-10-31T15:09:13;14.64;70.08
18581;DHT22;9420;50.876;7.012;2023-10-31T15:11:40;14.57;70.03
18581;DHT22;9420;50.876;7.012;2023-10-31T15:14:08;14.53;70.64
18581;DHT22;9420;50.876;7.012;2023-10-31T15:16:34;14.41;71.15
18581;DHT22;9420;50.876;7.012;2023-10-31T15:19:01;14.27;71.90
18581;DHT22;9420;50.876;7.012;2023-10-31T15:21:28;14.30;71.73
18581;DHT22;9420;50.876;7.012;2023-10-31T15:23:55;14.33;71.30
18581;DHT22;9420;50.876;7.012;2023-10-31T15:26:23;14.38;71.57
18581;DHT22;9420;50.876;7.012;2023-10-31T15:28:52;14.26;72.18
18581;DHT22;9420;50.876;7.012;2023-10-31T15:31:20;14.30;72.16
18581;DHT22;9420;50.876;7.012;2023-10-31T15:33:46;14.22;72.18
18581;DHT22;9420;50.876;7.012;2023-10-31T15:36:13;14.23;72.72
18581;DHT22;9420;50.876;7.012;2023-10-31T15:38:40;14.19;72.69
18581;DHT22;9420;50.876;7.012;2023-10-31T15:41:07;14.19;72.71
18581;DHT22;9420;50.876;7.012;2023-10-31T15:43:33;14.14;73.28
18581;DHT22;9420;50.876;7.012;2023-10-31T15:46:03;14.20;72.85
18581;DHT22;9420;50.876;7.012;2023-10-31T15:48:31;14.16;73.21